Time;durP1;ratioP1;P1;durP2;ratioP2;P2;SDS_P1;SDS_P2;PMS_P1;PMS_P2;Temp;Humidity;BMP_temperature;BMP_pressure;BME280_temperature;BME280_humidity;BME280_pressure;Samples;Min_cycle;Max_cycle;Signal;HPM_P1;HPM_P2
2022/05/04 00:05:42;;;;;;;0.20;0.10;;;13.10;99.90;;;;;;25659438;23;20150;-70
2022/05/04 00:15:47;;;;;;;0.20;0.00;;;13.20;99.90;;;;;;25512409;23;20214;-70
2022/05/04 00:25:51;;;;;;;0.20;0.00;;;13.00;99.90;;;;;;25535137;23;20167;-72
2022/05/04 00:35:56;;;;;;;0.20;0.10;;;12.70;99.90;;;;;;25537999;23;20186;-71
2022/05/04 00:46:00;;;;;;;0.20;0.10;;;12.70;99.90;;;;;;25509513;23;20174;-71
2022/05/04 00:56:06;;;;;;;0.20;0.10;;;12.80;99.90;;;;;;25536568;23;21096;-72
2022/05/04 01:06:10;;;;;;;0.20;0.10;;;12.70;99.90;;;;;;25535192;23;20168;-71
2022/05/04 01:16:15;;;;;;;0.20;0.10;;;12.90;99.90;;;;;;25655975;23;20190;-71
2022/05/04 01:26:21;;;;;;;0.20;0.20;;;12.90;99.90;;;;;;25655055;23;20238;-72
2022/05/04 01:36:25;;;;;;;0.20;0.00;;;12.70;99.90;;;;;;25651931;23;20194;-71
2022/05/04 01:46:30;;;;;;;0.20;0.10;;;12.50;99.90;;;;;;25653559;23;20166;-71
2022/05/04 01:56:34;;;;;;;0.20;0.10;;;12.40;99.90;;;;;;25653073;23;20190;-71
2022/05/04 02:06:39;;;;;;;0.20;0.10;;;12.50;99.90;;;;;;25652271;23;20205;-72
2022/05/04 02:16:43;;;;;;;0.20;0.10;;;12.60;99.90;;;;;;25653757;23;20194;-71
2022/05/04 02:26:49;;;;;;;0.20;0.10;;;12.50;99.90;;;;;;25652971;23;20173;-71
2022/05/04 02:47:15;;;;;;;0.20;0.00;;;12.50;99.90;;;;;;25650863;23;20154;-70
2022/05/04 02:57:19;;;;;;;0.20;0.10;;;12.30;99.90;;;;;;25652729;23;20502;-70
2022/05/04 03:07:24;;;;;;;0.20;0.10;;;12.10;99.90;;;;;;25623220;23;20198;-71
2022/05/04 03:17:28;;;;;;;0.20;0.10;;;12.00;99.90;;;;;;25626208;23;20189;-69
2022/05/04 03:27:33;;;;;;;0.20;0.00;;;12.10;99.90;;;;;;25653760;23;20197;-70
2022/05/04 03:37:38;;;;;;;0.20;0.10;;;11.90;99.90;;;;;;25661008;23;20221;-69
2022/05/04 03:47:44;;;;;;;0.20;0.10;;;12.20;99.90;;;;;;25660803;23;20170;-70
2022/05/04 03:57:48;;;;;;;0.20;0.10;;;11.90;99.90;;;;;;25631663;23;20190;-71
2022/05/04 04:07:53;;;;;;;0.20;0.10;;;12.00;99.90;;;;;;25660115;23;20458;-72
2022/05/04 04:17:57;;;;;;;0.20;0.10;;;12.10;99.90;;;;;;25630734;23;20249;-71
2022/05/04 04:28:02;;;;;;;0.20;0.10;;;12.10;99.90;;;;;;25628314;23;20477;-72
2022/05/04 04:38:07;;;;;;;0.20;0.10;;;12.30;99.90;;;;;;25653141;23;20193;-71
2022/05/04 04:48:12;;;;;;;0.20;0.00;;;12.50;99.90;;;;;;25631317;23;20500;-71
2022/05/04 04:58:17;;;;;;;0.20;0.07;;;12.90;99.90;;;;;;25628054;23;20198;-72
2022/05/04 05:08:22;;;;;;;0.20;0.10;;;13.00;99.90;;;;;;25655448;23;20190;-72
2022/05/04 05:18:26;;;;;;;0.20;0.10;;;13.30;99.90;;;;;;25653958;23;20665;-72
2022/05/04 05:28:31;;;;;;;0.20;0.00;;;13.60;99.90;;;;;;25627747;23;20189;-72
2022/05/04 05:38:35;;;;;;;0.20;0.00;;;14.00;99.90;;;;;;25624720;23;20198;-72
2022/05/04 05:48:40;;;;;;;0.20;0.10;;;14.40;99.90;;;;;;25651939;23;20170;-71
2022/05/04 05:58:44;;;;;;;0.20;0.10;;;14.70;99.90;;;;;;25648667;23;20190;-70
2022/05/04 06:08:49;;;;;;;0.20;0.00;;;15.50;99.90;;;;;;25640409;23;20194;-72
2022/05/04 06:18:53;;;;;;;0.20;0.00;;;16.40;99.90;;;;;;25647497;23;20194;-81
2022/05/04 06:28:58;;;;;;;0.20;0.00;;;16.70;99.90;;;;;;25647727;23;20166;-72
2022/05/04 06:39:02;;;;;;;0.20;0.00;;;16.80;99.90;;;;;;25600126;23;20905;-72
2022/05/04 06:49:07;;;;;;;0.20;0.00;;;16.90;99.90;;;;;;25646567;23;20173;-73
2022/05/04 06:59:11;;;;;;;0.20;0.10;;;17.00;99.90;;;;;;25620011;23;20194;-73
2022/05/04 07:09:22;;;;;;;0.20;0.10;;;17.00;99.90;;;;;;25646191;23;20229;-72
2022/05/04 07:19:25;;;;;;;0.20;0.10;;;17.20;99.90;;;;;;25620730;23;20201;-72
2022/05/04 07:29:30;;;;;;;0.20;0.10;;;17.50;99.90;;;;;;25644853;23;20170;-72
2022/05/04 07:49:58;;;;;;;0.20;0.00;;;17.70;99.90;;;;;;25650867;23;20166;-73
2022/05/04 08:10:25;;;;;;;0.20;0.00;;;18.00;99.90;;;;;;25576419;23;20206;-72
2022/05/04 08:20:29;;;;;;;0.20;0.00;;;18.20;99.90;;;;;;25653124;23;20193;-72
2022/05/04 08:30:35;;;;;;;0.20;0.00;;;18.30;99.90;;;;;;25629436;23;20181;-72
2022/05/04 08:40:39;;;;;;;0.20;0.00;;;18.40;99.90;;;;;;25653988;23;20181;-72
2022/05/04 08:50:44;;;;;;;0.20;0.10;;;18.90;99.90;;;;;;25653670;23;20844;-74
2022/05/04 09:00:48;;;;;;;0.20;0.07;;;18.60;99.90;;;;;;25644901;23;20190;-76
2022/05/04 09:10:53;;;;;;;0.20;0.00;;;18.70;99.90;;;;;;25640825;23;20222;-76
2022/05/04 09:20:58;;;;;;;0.20;0.00;;;19.10;99.90;;;;;;25611359;23;20237;-77
2022/05/04 09:31:08;;;;;;;0.20;0.10;;;19.70;99.90;;;;;;25635649;23;20170;-77
2022/05/04 09:51:36;;;;;;;0.20;0.10;;;20.30;99.90;;;;;;25639051;23;20186;-76
2022/05/04 10:01:40;;;;;;;0.20;0.00;;;20.40;99.90;;;;;;25610539;23;20237;-76
2022/05/04 10:11:47;;;;;;;0.20;0.10;;;20.30;99.90;;;;;;25639401;23;20257;-72
2022/05/04 10:21:57;;;;;;;0.20;0.10;;;20.60;99.90;;;;;;25610196;23;20208;-74
2022/05/04 10:32:03;;;;;;;0.20;0.20;;;20.50;99.90;;;;;;25609851;23;20174;-76
2022/05/04 10:42:23;;;;;;;0.20;0.00;;;20.90;99.90;;;;;;25609433;23;20209;-78
2022/05/04 10:52:32;;;;;;;0.20;0.00;;;22.00;99.90;;;;;;25635304;23;20194;-77
2022/05/04 11:02:36;;;;;;;0.20;0.07;;;21.80;99.90;;;;;;25636142;23;20198;-72
2022/05/04 11:12:43;;;;;;;0.20;0.10;;;20.60;99.90;;;;;;25635815;23;20189;-79
2022/05/04 11:22:52;;;;;;;0.20;0.00;;;20.70;99.90;;;;;;25636762;23;20468;-75
2022/05/04 11:32:57;;;;;;;0.20;0.00;;;21.10;99.90;;;;;;25631324;23;20163;-73
2022/05/04 11:43:01;;;;;;;0.20;0.10;;;20.50;99.90;;;;;;25633932;23;20186;-76
2022/05/04 11:53:06;;;;;;;0.30;0.17;;;22.20;99.90;;;;;;25640541;23;20270;-75
2022/05/04 12:03:11;;;;;;;0.20;0.00;;;21.80;99.90;;;;;;25620722;23;20186;-75
2022/05/04 12:13:21;;;;;;;0.20;0.00;;;22.00;99.90;;;;;;25615071;23;20212;-72
2022/05/04 12:23:25;;;;;;;0.20;0.10;;;22.30;99.90;;;;;;25612295;23;20190;-73
2022/05/04 12:33:32;;;;;;;0.20;0.10;;;22.40;99.90;;;;;;25633128;23;20257;-73
2022/05/04 12:43:37;;;;;;;0.20;0.10;;;21.30;99.90;;;;;;25638901;23;20198;-74
2022/05/04 12:53:42;;;;;;;0.20;0.00;;;22.00;99.90;;;;;;25615523;23;20190;-72
2022/05/04 13:03:46;;;;;;;0.20;0.10;;;21.20;99.90;;;;;;25612688;23;20190;-72
2022/05/04 13:13:51;;;;;;;0.20;0.20;;;20.20;99.90;;;;;;25641571;23;20221;-72
2022/05/04 13:23:55;;;;;;;0.20;0.10;;;20.40;99.90;;;;;;25640821;23;20212;-74
2022/05/04 13:34:00;;;;;;;0.20;0.10;;;20.90;99.90;;;;;;25641446;23;20163;-72
2022/05/04 13:44:05;;;;;;;0.20;0.00;;;21.50;99.90;;;;;;25640208;23;20397;-74
2022/05/04 13:54:10;;;;;;;0.20;0.00;;;21.30;99.90;;;;;;25640236;23;20186;-77
2022/05/04 14:04:14;;;;;;;0.20;0.00;;;21.50;99.90;;;;;;25627803;23;20193;-79
2022/05/04 16:54:48;;;;;;;0.20;0.10;;;18.20;99.90;;;;;;25634764;23;20206;-73
2022/05/04 17:04:52;;;;;;;0.20;0.00;;;18.20;99.90;;;;;;25653243;23;20253;-72
2022/05/04 17:14:58;;;;;;;0.20;0.10;;;18.00;99.90;;;;;;25655040;23;20170;-73
2022/05/04 17:25:02;;;;;;;0.20;0.10;;;17.90;99.90;;;;;;25630085;23;20190;-74
2022/05/04 17:45:30;;;;;;;0.20;0.10;;;17.80;99.90;;;;;;25656956;23;20190;-72
2022/05/04 17:55:42;;;;;;;0.20;0.10;;;17.80;99.90;;;;;;25654648;23;20202;-74
2022/05/04 18:05:46;;;;;;;0.20;0.07;;;17.80;99.90;;;;;;25657186;23;20174;-72
2022/05/04 18:15:52;;;;;;;0.20;0.10;;;17.60;99.90;;;;;;25654158;23;20205;-74
2022/05/04 18:25:56;;;;;;;0.20;0.00;;;17.50;99.90;;;;;;25654379;23;20170;-72
2022/05/04 18:36:02;;;;;;;0.20;0.10;;;17.30;99.90;;;;;;25655157;23;20174;-73
2022/05/04 18:46:06;;;;;;;0.20;0.10;;;17.30;99.90;;;;;;25654624;23;20166;-71
2022/05/04 18:56:11;;;;;;;0.20;0.00;;;17.20;99.90;;;;;;25653815;23;20202;-73
2022/05/04 19:06:15;;;;;;;0.20;0.00;;;17.00;99.90;;;;;;25656067;23;20205;-72
2022/05/04 19:16:21;;;;;;;0.20;0.10;;;17.10;99.90;;;;;;25652318;23;20167;-74
2022/05/04 19:26:25;;;;;;;0.20;0.10;;;17.00;99.90;;;;;;25627960;23;20173;-77
2022/05/04 19:36:30;;;;;;;0.20;0.00;;;17.00;99.90;;;;;;25625854;23;20182;-72
2022/05/04 19:46:36;;;;;;;0.20;0.10;;;17.00;99.90;;;;;;25624253;23;20167;-71
2022/05/04 19:56:42;;;;;;;0.20;0.10;;;17.10;99.90;;;;;;25623091;23;20533;-71
2022/05/04 20:06:46;;;;;;;0.20;0.10;;;17.00;99.90;;;;;;25652584;23;20181;-72
2022/05/04 20:16:51;;;;;;;0.20;0.10;;;17.00;99.90;;;;;;25659371;23;20189;-71
2022/05/04 20:26:55;;;;;;;0.20;0.10;;;16.80;99.90;;;;;;25661507;23;20181;-72
2022/05/04 20:37:02;;;;;;;0.20;0.10;;;16.60;99.90;;;;;;25661022;23;20261;-70
2022/05/04 20:47:06;;;;;;;0.20;0.10;;;16.30;99.90;;;;;;25662855;23;20153;-70
2022/05/04 20:57:13;;;;;;;0.20;0.00;;;16.20;99.90;;;;;;25633236;23;20391;-72
2022/05/04 21:07:18;;;;;;;0.20;0.10;;;15.90;99.90;;;;;;25632503;23;20489;-71
2022/05/04 21:17:23;;;;;;;3.60;3.30;;;16.00;99.90;;;;;;25656310;23;20205;-73
2022/05/04 21:27:47;;;;;;;0.20;0.03;;;15.80;99.90;;;;;;25628007;23;20221;-72
2022/05/04 21:37:52;;;;;;;0.20;0.00;;;15.80;99.90;;;;;;25654636;23;20351;-71
2022/05/04 21:47:56;;;;;;;0.20;0.07;;;15.70;99.90;;;;;;25655860;23;20189;-73
2022/05/04 21:58:02;;;;;;;0.20;0.10;;;16.00;99.90;;;;;;25631685;23;20221;-72
2022/05/04 22:08:07;;;;;;;0.20;0.00;;;16.30;99.90;;;;;;25629282;23;20185;-72
2022/05/04 22:18:12;;;;;;;0.20;0.10;;;16.40;99.90;;;;;;25654300;23;20253;-72
2022/05/04 22:28:16;;;;;;;0.20;0.00;;;16.50;99.90;;;;;;25653968;23;20162;-72
2022/05/04 22:38:21;;;;;;;0.20;0.10;;;16.40;99.90;;;;;;25653519;23;20725;-71
2022/05/04 22:48:27;;;;;;;0.20;0.10;;;16.30;99.90;;;;;;25627230;23;20254;-72
2022/05/04 22:58:32;;;;;;;0.20;0.00;;;16.10;99.90;;;;;;25652998;23;20209;-71
2022/05/04 23:08:36;;;;;;;0.20;0.00;;;15.70;99.90;;;;;;25629780;23;20162;-71
2022/05/04 23:18:44;;;;;;;0.20;0.10;;;15.60;99.90;;;;;;25650912;23;20190;-71
2022/05/04 23:28:48;;;;;;;0.20;0.00;;;15.40;99.90;;;;;;25628180;23;20169;-71
2022/05/04 23:38:54;;;;;;;0.20;0.00;;;15.40;99.90;;;;;;25652324;23;20186;-71
2022/05/04 23:48:58;;;;;;;0.20;0.00;;;15.40;99.90;;;;;;25656582;23;20177;-71
2022/05/04 23:59:03;;;;;;;0.20;0.03;;;15.40;99.90;;;;;;25658321;23;20206;-73
